sensor_id;sensor_type;location;lat;lon;timestamp;P1;durP1;ratioP1;P2;durP2;ratioP2
17812;SDS011;9030;50.792;8.320;2022-08-24T00:00:28;9.65;;;3.92;;
17812;SDS011;9030;50.792;8.320;2022-08-24T00:02:55;10.38;;;4.13;;
17812;SDS011;9030;50.792;8.320;2022-08-24T00:05:22;6.47;;;3.75;;
17812;SDS011;9030;50.792;8.320;2022-08-24T00:07:49;10.13;;;4.00;;
17812;SDS011;9030;50.792;8.320;2022-08-24T00:10:17;11.10;;;4.30;;
17812;SDS011;9030;50.792;8.320;2022-08-24T00:12:46;7.85;;;4.25;;
17812;SDS011;9030;50.792;8.320;2022-08-24T00:15:14;6.53;;;3.90;;
17812;SDS011;9030;50.792;8.320;2022-08-24T00:17:41;7.25;;;3.97;;
17812;SDS011;9030;50.792;8.320;2022-08-24T00:20:09;8.52;;;3.75;;
17812;SDS011;9030;50.792;8.320;2022-08-24T00:22:37;5.78;;;3.42;;
17812;SDS011;9030;50.792;8.320;2022-08-24T00:25:05;6.75;;;4.07;;
17812;SDS011;9030;50.792;8.320;2022-08-24T00:27:34;11.82;;;3.47;;
17812;SDS011;9030;50.792;8.320;2022-08-24T00:30:04;8.68;;;4.18;;
17812;SDS011;9030;50.792;8.320;2022-08-24T00:32:33;8.77;;;4.07;;
17812;SDS011;9030;50.792;8.320;2022-08-24T00:35:01;6.43;;;3.67;;
17812;SDS011;9030;50.792;8.320;2022-08-24T00:37:29;8.30;;;4.22;;
17812;SDS011;9030;50.792;8.320;2022-08-24T00:39:57;9.48;;;4.50;;
17812;SDS011;9030;50.792;8.320;2022-08-24T00:42:24;8.63;;;3.58;;
17812;SDS011;9030;50.792;8.320;2022-08-24T00:44:51;7.00;;;3.58;;
17812;SDS011;9030;50.792;8.320;2022-08-24T00:47:21;7.18;;;3.70;;
17812;SDS011;9030;50.792;8.320;2022-08-24T00:49:52;7.43;;;3.45;;
17812;SDS011;9030;50.792;8.320;2022-08-24T00:52:22;8.20;;;3.58;;
17812;SDS011;9030;50.792;8.320;2022-08-24T00:54:53;6.78;;;3.85;;
17812;SDS011;9030;50.792;8.320;2022-08-24T00:57:25;10.88;;;4.28;;
17812;SDS011;9030;50.792;8.320;2022-08-24T00:59:57;5.82;;;3.13;;
17812;SDS011;9030;50.792;8.320;2022-08-24T01:02:28;7.35;;;3.55;;
17812;SDS011;9030;50.792;8.320;2022-08-24T01:04:59;8.20;;;3.80;;
17812;SDS011;9030;50.792;8.320;2022-08-24T01:07:29;13.63;;;4.05;;
17812;SDS011;9030;50.792;8.320;2022-08-24T01:09:57;9.13;;;3.30;;
17812;SDS011;9030;50.792;8.320;2022-08-24T01:12:26;8.20;;;3.97;;
17812;SDS011;9030;50.792;8.320;2022-08-24T01:14:56;9.07;;;3.85;;
17812;SDS011;9030;50.792;8.320;2022-08-24T01:17:24;10.48;;;3.95;;
17812;SDS011;9030;50.792;8.320;2022-08-24T01:20:11;6.45;;;3.03;;
17812;SDS011;9030;50.792;8.320;2022-08-24T01:25:25;8.38;;;3.60;;
17812;SDS011;9030;50.792;8.320;2022-08-24T01:27:55;9.75;;;3.30;;
17812;SDS011;9030;50.792;8.320;2022-08-24T01:30:25;7.32;;;3.38;;
17812;SDS011;9030;50.792;8.320;2022-08-24T01:32:52;14.90;;;4.40;;
17812;SDS011;9030;50.792;8.320;2022-08-24T01:35:20;5.63;;;3.28;;
17812;SDS011;9030;50.792;8.320;2022-08-24T01:37:47;7.20;;;3.30;;
17812;SDS011;9030;50.792;8.320;2022-08-24T01:40:15;8.85;;;3.65;;
17812;SDS011;9030;50.792;8.320;2022-08-24T01:42:49;7.13;;;4.20;;
17812;SDS011;9030;50.792;8.320;2022-08-24T01:45:18;8.60;;;4.07;;
17812;SDS011;9030;50.792;8.320;2022-08-24T01:47:45;7.20;;;3.67;;
17812;SDS011;9030;50.792;8.320;2022-08-24T01:50:12;7.38;;;3.92;;
17812;SDS011;9030;50.792;8.320;2022-08-24T01:52:40;8.23;;;4.97;;
17812;SDS011;9030;50.792;8.320;2022-08-24T01:55:09;7.15;;;3.50;;
17812;SDS011;9030;50.792;8.320;2022-08-24T01:57:37;6.57;;;3.60;;
17812;SDS011;9030;50.792;8.320;2022-08-24T02:00:07;10.85;;;4.03;;
17812;SDS011;9030;50.792;8.320;2022-08-24T02:02:38;7.70;;;3.40;;
17812;SDS011;9030;50.792;8.320;2022-08-24T02:05:06;8.88;;;3.33;;
17812;SDS011;9030;50.792;8.320;2022-08-24T02:07:33;6.50;;;3.55;;
17812;SDS011;9030;50.792;8.320;2022-08-24T02:10:00;11.15;;;3.70;;
17812;SDS011;9030;50.792;8.320;2022-08-24T02:12:27;6.80;;;2.97;;
17812;SDS011;9030;50.792;8.320;2022-08-24T02:14:54;11.02;;;3.97;;
17812;SDS011;9030;50.792;8.320;2022-08-24T02:17:22;9.35;;;4.20;;
17812;SDS011;9030;50.792;8.320;2022-08-24T02:19:49;9.32;;;3.38;;
17812;SDS011;9030;50.792;8.320;2022-08-24T02:22:15;6.32;;;3.55;;
17812;SDS011;9030;50.792;8.320;2022-08-24T02:24:42;7.95;;;3.75;;
17812;SDS011;9030;50.792;8.320;2022-08-24T02:27:09;9.77;;;3.05;;
17812;SDS011;9030;50.792;8.320;2022-08-24T02:29:36;6.00;;;3.40;;
17812;SDS011;9030;50.792;8.320;2022-08-24T02:32:03;8.32;;;3.58;;
17812;SDS011;9030;50.792;8.320;2022-08-24T02:34:32;10.00;;;3.97;;
17812;SDS011;9030;50.792;8.320;2022-08-24T02:36:59;9.05;;;3.70;;
17812;SDS011;9030;50.792;8.320;2022-08-24T02:39:26;8.73;;;3.70;;
17812;SDS011;9030;50.792;8.320;2022-08-24T02:41:53;9.43;;;4.25;;
17812;SDS011;9030;50.792;8.320;2022-08-24T02:44:20;9.68;;;3.90;;
17812;SDS011;9030;50.792;8.320;2022-08-24T02:46:47;7.47;;;4.00;;
17812;SDS011;9030;50.792;8.320;2022-08-24T02:49:14;9.10;;;3.97;;
17812;SDS011;9030;50.792;8.320;2022-08-24T02:51:44;6.05;;;3.88;;
17812;SDS011;9030;50.792;8.320;2022-08-24T02:54:11;9.30;;;4.20;;
17812;SDS011;9030;50.792;8.320;2022-08-24T02:56:41;8.63;;;4.25;;
17812;SDS011;9030;50.792;8.320;2022-08-24T02:59:08;9.77;;;3.88;;
17812;SDS011;9030;50.792;8.320;2022-08-24T03:01:35;6.20;;;3.50;;
17812;SDS011;9030;50.792;8.320;2022-08-24T03:04:02;8.07;;;3.83;;
17812;SDS011;9030;50.792;8.320;2022-08-24T03:06:29;8.23;;;4.68;;
17812;SDS011;9030;50.792;8.320;2022-08-24T03:08:57;13.32;;;4.30;;
17812;SDS011;9030;50.792;8.320;2022-08-24T03:11:24;9.23;;;4.05;;
17812;SDS011;9030;50.792;8.320;2022-08-24T03:13:51;6.53;;;3.42;;
17812;SDS011;9030;50.792;8.320;2022-08-24T03:16:18;5.82;;;3.72;;
17812;SDS011;9030;50.792;8.320;2022-08-24T03:18:44;10.07;;;3.33;;
17812;SDS011;9030;50.792;8.320;2022-08-24T03:21:11;7.20;;;3.42;;
17812;SDS011;9030;50.792;8.320;2022-08-24T03:23:38;8.55;;;4.18;;
17812;SDS011;9030;50.792;8.320;2022-08-24T03:26:06;10.98;;;4.47;;
17812;SDS011;9030;50.792;8.320;2022-08-24T03:28:33;8.00;;;4.07;;
17812;SDS011;9030;50.792;8.320;2022-08-24T03:31:00;8.45;;;4.50;;
17812;SDS011;9030;50.792;8.320;2022-08-24T03:33:27;9.30;;;4.20;;
17812;SDS011;9030;50.792;8.320;2022-08-24T03:35:54;8.02;;;3.83;;
17812;SDS011;9030;50.792;8.320;2022-08-24T03:38:21;10.95;;;4.03;;
17812;SDS011;9030;50.792;8.320;2022-08-24T03:40:47;7.85;;;4.20;;
17812;SDS011;9030;50.792;8.320;2022-08-24T03:43:16;7.20;;;3.22;;
17812;SDS011;9030;50.792;8.320;2022-08-24T03:45:57;7.43;;;4.03;;
17812;SDS011;9030;50.792;8.320;2022-08-24T03:48:24;7.05;;;3.80;;
17812;SDS011;9030;50.792;8.320;2022-08-24T03:50:52;6.97;;;4.18;;
17812;SDS011;9030;50.792;8.320;2022-08-24T03:53:19;8.82;;;4.55;;
17812;SDS011;9030;50.792;8.320;2022-08-24T03:55:46;7.30;;;3.30;;
17812;SDS011;9030;50.792;8.320;2022-08-24T03:58:13;9.77;;;3.67;;
17812;SDS011;9030;50.792;8.320;2022-08-24T04:00:42;8.45;;;4.10;;
17812;SDS011;9030;50.792;8.320;2022-08-24T04:03:09;7.95;;;5.25;;
17812;SDS011;9030;50.792;8.320;2022-08-24T04:05:38;7.82;;;3.78;;
17812;SDS011;9030;50.792;8.320;2022-08-24T04:08:06;10.77;;;4.03;;
17812;SDS011;9030;50.792;8.320;2022-08-24T04:10:33;10.80;;;4.22;;
17812;SDS011;9030;50.792;8.320;2022-08-24T04:13:00;9.45;;;4.40;;
17812;SDS011;9030;50.792;8.320;2022-08-24T04:15:27;12.38;;;4.55;;
17812;SDS011;9030;50.792;8.320;2022-08-24T04:17:57;7.18;;;4.82;;
17812;SDS011;9030;50.792;8.320;2022-08-24T04:20:23;9.35;;;5.10;;
17812;SDS011;9030;50.792;8.320;2022-08-24T04:22:52;10.95;;;5.18;;
17812;SDS011;9030;50.792;8.320;2022-08-24T04:25:20;7.25;;;4.65;;
17812;SDS011;9030;50.792;8.320;2022-08-24T04:27:47;7.22;;;3.65;;
17812;SDS011;9030;50.792;8.320;2022-08-24T04:30:14;7.75;;;3.60;;
17812;SDS011;9030;50.792;8.320;2022-08-24T04:32:41;8.98;;;4.82;;
17812;SDS011;9030;50.792;8.320;2022-08-24T04:35:09;9.15;;;3.35;;
17812;SDS011;9030;50.792;8.320;2022-08-24T04:37:37;11.55;;;4.72;;
17812;SDS011;9030;50.792;8.320;2022-08-24T04:40:04;7.72;;;5.15;;
17812;SDS011;9030;50.792;8.320;2022-08-24T04:42:32;10.75;;;4.72;;
17812;SDS011;9030;50.792;8.320;2022-08-24T04:44:59;9.70;;;4.75;;
17812;SDS011;9030;50.792;8.320;2022-08-24T04:47:26;8.48;;;4.28;;
17812;SDS011;9030;50.792;8.320;2022-08-24T04:49:53;9.23;;;4.25;;
17812;SDS011;9030;50.792;8.320;2022-08-24T04:52:21;9.65;;;4.55;;
17812;SDS011;9030;50.792;8.320;2022-08-24T04:54:48;11.38;;;4.45;;
17812;SDS011;9030;50.792;8.320;2022-08-24T04:57:15;9.10;;;4.18;;
17812;SDS011;9030;50.792;8.320;2022-08-24T04:59:42;9.98;;;4.30;;
17812;SDS011;9030;50.792;8.320;2022-08-24T05:02:09;12.32;;;4.00;;
17812;SDS011;9030;50.792;8.320;2022-08-24T05:04:35;10.52;;;4.65;;
17812;SDS011;9030;50.792;8.320;2022-08-24T05:07:02;11.00;;;5.07;;
17812;SDS011;9030;50.792;8.320;2022-08-24T05:09:30;12.57;;;4.28;;
17812;SDS011;9030;50.792;8.320;2022-08-24T05:11:57;12.52;;;4.85;;
17812;SDS011;9030;50.792;8.320;2022-08-24T05:14:24;11.95;;;5.00;;
17812;SDS011;9030;50.792;8.320;2022-08-24T05:16:52;8.30;;;3.78;;
17812;SDS011;9030;50.792;8.320;2022-08-24T05:19:18;6.53;;;3.67;;
17812;SDS011;9030;50.792;8.320;2022-08-24T05:21:47;14.13;;;4.07;;
17812;SDS011;9030;50.792;8.320;2022-08-24T05:24:13;11.30;;;5.38;;
17812;SDS011;9030;50.792;8.320;2022-08-24T05:26:41;10.68;;;5.10;;
17812;SDS011;9030;50.792;8.320;2022-08-24T05:29:08;13.32;;;4.60;;
17812;SDS011;9030;50.792;8.320;2022-08-24T05:31:35;10.20;;;4.82;;
17812;SDS011;9030;50.792;8.320;2022-08-24T05:34:02;9.32;;;4.85;;
17812;SDS011;9030;50.792;8.320;2022-08-24T05:36:30;13.10;;;6.10;;
17812;SDS011;9030;50.792;8.320;2022-08-24T05:39:00;17.75;;;7.10;;
17812;SDS011;9030;50.792;8.320;2022-08-24T05:41:29;13.68;;;6.05;;
17812;SDS011;9030;50.792;8.320;2022-08-24T05:43:57;14.45;;;6.22;;
17812;SDS011;9030;50.792;8.320;2022-08-24T05:46:24;31.08;;;7.25;;
17812;SDS011;9030;50.792;8.320;2022-08-24T05:48:51;24.77;;;5.65;;
17812;SDS011;9030;50.792;8.320;2022-08-24T05:51:18;19.77;;;7.15;;
17812;SDS011;9030;50.792;8.320;2022-08-24T05:53:45;14.85;;;6.22;;
17812;SDS011;9030;50.792;8.320;2022-08-24T05:56:13;15.73;;;6.15;;
17812;SDS011;9030;50.792;8.320;2022-08-24T05:58:41;22.23;;;6.55;;
17812;SDS011;9030;50.792;8.320;2022-08-24T06:01:10;12.27;;;5.80;;
17812;SDS011;9030;50.792;8.320;2022-08-24T06:03:38;14.82;;;6.30;;
17812;SDS011;9030;50.792;8.320;2022-08-24T06:06:06;11.15;;;5.40;;
17812;SDS011;9030;50.792;8.320;2022-08-24T06:08:35;11.38;;;5.88;;
17812;SDS011;9030;50.792;8.320;2022-08-24T06:11:03;18.75;;;6.28;;
17812;SDS011;9030;50.792;8.320;2022-08-24T06:13:30;12.65;;;6.15;;
17812;SDS011;9030;50.792;8.320;2022-08-24T06:16:01;11.32;;;5.43;;
17812;SDS011;9030;50.792;8.320;2022-08-24T06:18:30;13.15;;;5.80;;
17812;SDS011;9030;50.792;8.320;2022-08-24T06:20:57;13.13;;;5.60;;
17812;SDS011;9030;50.792;8.320;2022-08-24T06:23:30;10.63;;;5.38;;
17812;SDS011;9030;50.792;8.320;2022-08-24T06:25:57;16.70;;;6.18;;
17812;SDS011;9030;50.792;8.320;2022-08-24T06:28:42;14.88;;;6.50;;
17812;SDS011;9030;50.792;8.320;2022-08-24T06:31:09;14.00;;;6.50;;
17812;SDS011;9030;50.792;8.320;2022-08-24T06:33:37;12.05;;;5.63;;
17812;SDS011;9030;50.792;8.320;2022-08-24T06:36:04;11.00;;;5.47;;
17812;SDS011;9030;50.792;8.320;2022-08-24T06:38:31;11.57;;;5.35;;
17812;SDS011;9030;50.792;8.320;2022-08-24T06:40:58;13.13;;;6.03;;
17812;SDS011;9030;50.792;8.320;2022-08-24T06:43:25;15.00;;;5.45;;
17812;SDS011;9030;50.792;8.320;2022-08-24T06:45:53;10.63;;;5.70;;
17812;SDS011;9030;50.792;8.320;2022-08-24T06:48:20;10.57;;;5.20;;
17812;SDS011;9030;50.792;8.320;2022-08-24T06:50:49;13.40;;;6.25;;
17812;SDS011;9030;50.792;8.320;2022-08-24T06:53:16;10.32;;;5.03;;
17812;SDS011;9030;50.792;8.320;2022-08-24T06:55:44;10.90;;;5.15;;
17812;SDS011;9030;50.792;8.320;2022-08-24T06:58:11;11.43;;;4.78;;
17812;SDS011;9030;50.792;8.320;2022-08-24T07:00:38;9.48;;;4.97;;
17812;SDS011;9030;50.792;8.320;2022-08-24T07:03:05;9.15;;;4.65;;
17812;SDS011;9030;50.792;8.320;2022-08-24T07:05:32;7.78;;;4.20;;
17812;SDS011;9030;50.792;8.320;2022-08-24T07:08:00;12.07;;;4.78;;
17812;SDS011;9030;50.792;8.320;2022-08-24T07:10:28;10.52;;;4.82;;
17812;SDS011;9030;50.792;8.320;2022-08-24T07:12:55;8.85;;;4.57;;
17812;SDS011;9030;50.792;8.320;2022-08-24T07:15:22;10.60;;;4.35;;
17812;SDS011;9030;50.792;8.320;2022-08-24T07:17:50;10.13;;;4.35;;
17812;SDS011;9030;50.792;8.320;2022-08-24T07:20:17;12.25;;;4.30;;
17812;SDS011;9030;50.792;8.320;2022-08-24T07:22:44;9.68;;;4.82;;
17812;SDS011;9030;50.792;8.320;2022-08-24T07:25:12;7.10;;;3.97;;
17812;SDS011;9030;50.792;8.320;2022-08-24T07:27:39;8.35;;;4.68;;
17812;SDS011;9030;50.792;8.320;2022-08-24T07:30:06;9.52;;;4.18;;
17812;SDS011;9030;50.792;8.320;2022-08-24T07:32:34;7.80;;;4.30;;
17812;SDS011;9030;50.792;8.320;2022-08-24T07:35:01;10.75;;;4.20;;
17812;SDS011;9030;50.792;8.320;2022-08-24T07:37:27;10.43;;;4.53;;
17812;SDS011;9030;50.792;8.320;2022-08-24T07:39:54;9.63;;;4.45;;
17812;SDS011;9030;50.792;8.320;2022-08-24T07:42:23;6.32;;;3.67;;
17812;SDS011;9030;50.792;8.320;2022-08-24T07:44:50;15.13;;;5.90;;
17812;SDS011;9030;50.792;8.320;2022-08-24T07:47:17;10.88;;;4.60;;
17812;SDS011;9030;50.792;8.320;2022-08-24T07:49:44;12.48;;;4.28;;
17812;SDS011;9030;50.792;8.320;2022-08-24T07:52:11;8.23;;;3.45;;
17812;SDS011;9030;50.792;8.320;2022-08-24T07:54:37;9.23;;;3.97;;
17812;SDS011;9030;50.792;8.320;2022-08-24T07:57:05;8.50;;;4.00;;
17812;SDS011;9030;50.792;8.320;2022-08-24T07:59:33;10.68;;;4.05;;
17812;SDS011;9030;50.792;8.320;2022-08-24T08:02:00;13.43;;;4.40;;
17812;SDS011;9030;50.792;8.320;2022-08-24T08:04:27;11.43;;;3.85;;
17812;SDS011;9030;50.792;8.320;2022-08-24T08:06:55;12.35;;;4.70;;
17812;SDS011;9030;50.792;8.320;2022-08-24T08:09:24;7.80;;;3.30;;
17812;SDS011;9030;50.792;8.320;2022-08-24T08:11:52;7.47;;;3.95;;
17812;SDS011;9030;50.792;8.320;2022-08-24T08:14:19;6.32;;;3.58;;
17812;SDS011;9030;50.792;8.320;2022-08-24T08:16:47;11.43;;;3.92;;
17812;SDS011;9030;50.792;8.320;2022-08-24T08:19:14;5.45;;;2.72;;
17812;SDS011;9030;50.792;8.320;2022-08-24T08:21:41;5.35;;;2.53;;
17812;SDS011;9030;50.792;8.320;2022-08-24T08:24:27;4.00;;;2.30;;
17812;SDS011;9030;50.792;8.320;2022-08-24T08:26:54;6.43;;;3.20;;
17812;SDS011;9030;50.792;8.320;2022-08-24T08:29:23;6.40;;;3.42;;
17812;SDS011;9030;50.792;8.320;2022-08-24T08:31:52;3.78;;;2.50;;
17812;SDS011;9030;50.792;8.320;2022-08-24T08:34:19;4.88;;;2.53;;
17812;SDS011;9030;50.792;8.320;2022-08-24T08:36:47;7.00;;;4.00;;
17812;SDS011;9030;50.792;8.320;2022-08-24T08:39:14;4.00;;;2.45;;
17812;SDS011;9030;50.792;8.320;2022-08-24T08:41:50;6.50;;;2.85;;
17812;SDS011;9030;50.792;8.320;2022-08-24T08:44:38;9.52;;;3.38;;
17812;SDS011;9030;50.792;8.320;2022-08-24T08:47:26;3.67;;;2.10;;
17812;SDS011;9030;50.792;8.320;2022-08-24T08:50:08;7.22;;;3.08;;
17812;SDS011;9030;50.792;8.320;2022-08-24T08:52:51;5.57;;;2.67;;
17812;SDS011;9030;50.792;8.320;2022-08-24T08:55:39;7.70;;;2.72;;
17812;SDS011;9030;50.792;8.320;2022-08-24T08:58:17;5.93;;;2.90;;
17812;SDS011;9030;50.792;8.320;2022-08-24T09:01:00;4.70;;;2.75;;
17812;SDS011;9030;50.792;8.320;2022-08-24T09:03:38;5.88;;;2.72;;
17812;SDS011;9030;50.792;8.320;2022-08-24T09:06:29;6.35;;;2.80;;
17812;SDS011;9030;50.792;8.320;2022-08-24T09:11:59;7.13;;;2.65;;
17812;SDS011;9030;50.792;8.320;2022-08-24T09:14:58;5.03;;;2.30;;
17812;SDS011;9030;50.792;8.320;2022-08-24T09:17:45;8.35;;;2.50;;
17812;SDS011;9030;50.792;8.320;2022-08-24T09:20:59;5.25;;;2.47;;
17812;SDS011;9030;50.792;8.320;2022-08-24T09:23:35;6.57;;;2.42;;
17812;SDS011;9030;50.792;8.320;2022-08-24T09:26:16;7.45;;;2.60;;
17812;SDS011;9030;50.792;8.320;2022-08-24T09:28:52;4.32;;;2.38;;
17812;SDS011;9030;50.792;8.320;2022-08-24T09:31:31;6.53;;;3.25;;
17812;SDS011;9030;50.792;8.320;2022-08-24T09:34:10;6.30;;;2.67;;
17812;SDS011;9030;50.792;8.320;2022-08-24T09:36:47;7.40;;;2.42;;
17812;SDS011;9030;50.792;8.320;2022-08-24T09:39:26;12.73;;;2.13;;
17812;SDS011;9030;50.792;8.320;2022-08-24T09:42:08;9.05;;;3.22;;
17812;SDS011;9030;50.792;8.320;2022-08-24T09:44:58;3.78;;;2.30;;
17812;SDS011;9030;50.792;8.320;2022-08-24T09:47:50;7.13;;;2.15;;
17812;SDS011;9030;50.792;8.320;2022-08-24T09:53:31;7.47;;;3.08;;
17812;SDS011;9030;50.792;8.320;2022-08-24T09:56:22;6.88;;;2.55;;
17812;SDS011;9030;50.792;8.320;2022-08-24T09:59:05;8.82;;;2.70;;
17812;SDS011;9030;50.792;8.320;2022-08-24T10:01:42;5.72;;;2.55;;
17812;SDS011;9030;50.792;8.320;2022-08-24T10:04:18;7.70;;;2.90;;
17812;SDS011;9030;50.792;8.320;2022-08-24T10:06:56;5.10;;;2.30;;
17812;SDS011;9030;50.792;8.320;2022-08-24T10:12:38;5.03;;;2.83;;
17812;SDS011;9030;50.792;8.320;2022-08-24T10:15:15;3.45;;;2.33;;
17812;SDS011;9030;50.792;8.320;2022-08-24T10:17:48;6.03;;;2.83;;
17812;SDS011;9030;50.792;8.320;2022-08-24T10:20:33;6.72;;;2.42;;
17812;SDS011;9030;50.792;8.320;2022-08-24T10:23:24;6.93;;;2.78;;
17812;SDS011;9030;50.792;8.320;2022-08-24T10:26:08;3.72;;;2.45;;
17812;SDS011;9030;50.792;8.320;2022-08-24T10:31:43;9.07;;;3.30;;
17812;SDS011;9030;50.792;8.320;2022-08-24T10:34:27;5.85;;;3.03;;
17812;SDS011;9030;50.792;8.320;2022-08-24T10:40:10;7.57;;;3.20;;
17812;SDS011;9030;50.792;8.320;2022-08-24T10:46:02;8.60;;;4.10;;
17812;SDS011;9030;50.792;8.320;2022-08-24T10:48:57;6.75;;;3.03;;
17812;SDS011;9030;50.792;8.320;2022-08-24T10:51:57;7.05;;;3.30;;
17812;SDS011;9030;50.792;8.320;2022-08-24T10:54:38;7.40;;;3.20;;
17812;SDS011;9030;50.792;8.320;2022-08-24T10:57:07;5.22;;;3.10;;
17812;SDS011;9030;50.792;8.320;2022-08-24T10:59:42;9.20;;;4.22;;
17812;SDS011;9030;50.792;8.320;2022-08-24T11:02:27;7.55;;;3.28;;
17812;SDS011;9030;50.792;8.320;2022-08-24T11:04:55;10.35;;;3.55;;
17812;SDS011;9030;50.792;8.320;2022-08-24T11:07:23;6.40;;;3.00;;
17812;SDS011;9030;50.792;8.320;2022-08-24T11:09:51;9.05;;;3.55;;
17812;SDS011;9030;50.792;8.320;2022-08-24T11:12:22;8.13;;;3.10;;
17812;SDS011;9030;50.792;8.320;2022-08-24T11:14:53;4.57;;;3.65;;
17812;SDS011;9030;50.792;8.320;2022-08-24T11:17:23;6.20;;;2.78;;
17812;SDS011;9030;50.792;8.320;2022-08-24T11:19:52;5.47;;;2.95;;
17812;SDS011;9030;50.792;8.320;2022-08-24T11:22:25;7.40;;;4.10;;
17812;SDS011;9030;50.792;8.320;2022-08-24T11:24:57;5.93;;;2.63;;
17812;SDS011;9030;50.792;8.320;2022-08-24T11:27:28;12.70;;;4.15;;
17812;SDS011;9030;50.792;8.320;2022-08-24T11:30:02;6.40;;;3.20;;
17812;SDS011;9030;50.792;8.320;2022-08-24T11:32:40;7.88;;;3.45;;
17812;SDS011;9030;50.792;8.320;2022-08-24T11:35:17;8.07;;;3.20;;
17812;SDS011;9030;50.792;8.320;2022-08-24T11:37:48;11.73;;;3.70;;
17812;SDS011;9030;50.792;8.320;2022-08-24T11:40:17;8.77;;;3.45;;
17812;SDS011;9030;50.792;8.320;2022-08-24T11:42:52;6.20;;;2.65;;
17812;SDS011;9030;50.792;8.320;2022-08-24T11:45:32;5.93;;;3.08;;
17812;SDS011;9030;50.792;8.320;2022-08-24T11:48:05;8.32;;;3.35;;
17812;SDS011;9030;50.792;8.320;2022-08-24T11:50:42;5.50;;;2.55;;
17812;SDS011;9030;50.792;8.320;2022-08-24T11:53:19;6.88;;;3.30;;
17812;SDS011;9030;50.792;8.320;2022-08-24T11:55:56;7.57;;;3.15;;
17812;SDS011;9030;50.792;8.320;2022-08-24T11:58:34;6.55;;;3.42;;
17812;SDS011;9030;50.792;8.320;2022-08-24T12:01:07;5.75;;;3.17;;
17812;SDS011;9030;50.792;8.320;2022-08-24T12:03:43;7.30;;;3.55;;
17812;SDS011;9030;50.792;8.320;2022-08-24T12:06:26;5.90;;;2.63;;
17812;SDS011;9030;50.792;8.320;2022-08-24T12:09:03;6.13;;;3.45;;
17812;SDS011;9030;50.792;8.320;2022-08-24T12:11:37;11.27;;;3.75;;
17812;SDS011;9030;50.792;8.320;2022-08-24T12:14:10;9.82;;;4.43;;
17812;SDS011;9030;50.792;8.320;2022-08-24T12:16:46;11.27;;;3.30;;
17812;SDS011;9030;50.792;8.320;2022-08-24T12:19:20;7.65;;;2.75;;
17812;SDS011;9030;50.792;8.320;2022-08-24T12:21:52;6.22;;;2.80;;
17812;SDS011;9030;50.792;8.320;2022-08-24T12:24:25;5.53;;;3.58;;
17812;SDS011;9030;50.792;8.320;2022-08-24T12:26:59;4.55;;;2.55;;
17812;SDS011;9030;50.792;8.320;2022-08-24T12:29:29;7.18;;;3.08;;
17812;SDS011;9030;50.792;8.320;2022-08-24T12:32:02;10.45;;;3.00;;
17812;SDS011;9030;50.792;8.320;2022-08-24T12:34:36;7.05;;;4.00;;
17812;SDS011;9030;50.792;8.320;2022-08-24T12:37:11;6.07;;;3.40;;
17812;SDS011;9030;50.792;8.320;2022-08-24T12:39:45;7.60;;;3.20;;
17812;SDS011;9030;50.792;8.320;2022-08-24T12:42:16;5.93;;;2.83;;
17812;SDS011;9030;50.792;8.320;2022-08-24T12:44:48;8.27;;;3.22;;
17812;SDS011;9030;50.792;8.320;2022-08-24T12:47:21;5.75;;;3.35;;
17812;SDS011;9030;50.792;8.320;2022-08-24T12:49:54;10.75;;;3.20;;
17812;SDS011;9030;50.792;8.320;2022-08-24T12:52:34;6.35;;;2.97;;
17812;SDS011;9030;50.792;8.320;2022-08-24T12:58:44;5.53;;;2.97;;
17812;SDS011;9030;50.792;8.320;2022-08-24T13:01:24;10.32;;;2.88;;
17812;SDS011;9030;50.792;8.320;2022-08-24T13:04:06;6.57;;;2.50;;
17812;SDS011;9030;50.792;8.320;2022-08-24T13:06:39;4.65;;;2.42;;
17812;SDS011;9030;50.792;8.320;2022-08-24T13:09:10;5.78;;;2.90;;
17812;SDS011;9030;50.792;8.320;2022-08-24T13:11:55;12.48;;;3.17;;
17812;SDS011;9030;50.792;8.320;2022-08-24T13:14:23;6.93;;;2.60;;
17812;SDS011;9030;50.792;8.320;2022-08-24T13:17:06;7.15;;;2.97;;
17812;SDS011;9030;50.792;8.320;2022-08-24T13:19:38;10.65;;;2.88;;
17812;SDS011;9030;50.792;8.320;2022-08-24T13:25:17;5.78;;;2.40;;
17812;SDS011;9030;50.792;8.320;2022-08-24T13:31:04;5.95;;;2.53;;
17812;SDS011;9030;50.792;8.320;2022-08-24T13:33:50;5.38;;;2.17;;
17812;SDS011;9030;50.792;8.320;2022-08-24T13:45:34;6.95;;;2.22;;
17812;SDS011;9030;50.792;8.320;2022-08-24T13:48:12;5.25;;;2.38;;
17812;SDS011;9030;50.792;8.320;2022-08-24T13:50:56;6.18;;;2.13;;
17812;SDS011;9030;50.792;8.320;2022-08-24T13:53:49;6.43;;;2.75;;
17812;SDS011;9030;50.792;8.320;2022-08-24T13:56:32;8.38;;;2.78;;
17812;SDS011;9030;50.792;8.320;2022-08-24T13:59:10;9.38;;;3.00;;
17812;SDS011;9030;50.792;8.320;2022-08-24T14:01:44;5.28;;;2.70;;
17812;SDS011;9030;50.792;8.320;2022-08-24T14:04:32;4.60;;;2.80;;
17812;SDS011;9030;50.792;8.320;2022-08-24T14:07:08;6.50;;;2.53;;
17812;SDS011;9030;50.792;8.320;2022-08-24T14:09:46;7.68;;;2.80;;
17812;SDS011;9030;50.792;8.320;2022-08-24T14:12:25;2.78;;;2.08;;
17812;SDS011;9030;50.792;8.320;2022-08-24T14:15:08;6.55;;;2.72;;
17812;SDS011;9030;50.792;8.320;2022-08-24T14:17:42;7.68;;;3.15;;
17812;SDS011;9030;50.792;8.320;2022-08-24T14:20:27;5.70;;;1.80;;
17812;SDS011;9030;50.792;8.320;2022-08-24T14:23:08;3.85;;;2.28;;
17812;SDS011;9030;50.792;8.320;2022-08-24T14:25:49;6.50;;;3.08;;
17812;SDS011;9030;50.792;8.320;2022-08-24T14:28:38;7.40;;;2.78;;
17812;SDS011;9030;50.792;8.320;2022-08-24T14:31:13;5.15;;;3.05;;
17812;SDS011;9030;50.792;8.320;2022-08-24T14:33:46;8.45;;;2.85;;
17812;SDS011;9030;50.792;8.320;2022-08-24T14:36:23;7.05;;;2.58;;
17812;SDS011;9030;50.792;8.320;2022-08-24T14:39:09;3.83;;;2.55;;
17812;SDS011;9030;50.792;8.320;2022-08-24T14:41:51;6.25;;;2.65;;
17812;SDS011;9030;50.792;8.320;2022-08-24T14:44:24;3.83;;;2.30;;
17812;SDS011;9030;50.792;8.320;2022-08-24T14:47:02;5.68;;;2.60;;
17812;SDS011;9030;50.792;8.320;2022-08-24T14:49:33;6.00;;;2.40;;
17812;SDS011;9030;50.792;8.320;2022-08-24T14:52:40;4.38;;;2.30;;
17812;SDS011;9030;50.792;8.320;2022-08-24T14:55:11;10.63;;;2.65;;
17812;SDS011;9030;50.792;8.320;2022-08-24T15:00:55;6.88;;;2.67;;
17812;SDS011;9030;50.792;8.320;2022-08-24T15:03:35;10.98;;;3.65;;
17812;SDS011;9030;50.792;8.320;2022-08-24T15:06:21;7.65;;;3.15;;
17812;SDS011;9030;50.792;8.320;2022-08-24T15:08:51;9.65;;;3.40;;
17812;SDS011;9030;50.792;8.320;2022-08-24T15:11:21;4.15;;;2.72;;
17812;SDS011;9030;50.792;8.320;2022-08-24T15:13:54;6.18;;;2.83;;
17812;SDS011;9030;50.792;8.320;2022-08-24T15:16:24;8.15;;;2.97;;
17812;SDS011;9030;50.792;8.320;2022-08-24T15:19:02;8.07;;;3.15;;
17812;SDS011;9030;50.792;8.320;2022-08-24T15:21:39;5.85;;;2.63;;
17812;SDS011;9030;50.792;8.320;2022-08-24T15:24:14;4.70;;;2.47;;
17812;SDS011;9030;50.792;8.320;2022-08-24T15:26:53;7.40;;;2.67;;
17812;SDS011;9030;50.792;8.320;2022-08-24T15:29:28;7.80;;;3.10;;
17812;SDS011;9030;50.792;8.320;2022-08-24T15:31:59;7.35;;;2.55;;
17812;SDS011;9030;50.792;8.320;2022-08-24T15:34:38;5.93;;;2.95;;
17812;SDS011;9030;50.792;8.320;2022-08-24T15:37:09;4.65;;;2.47;;
17812;SDS011;9030;50.792;8.320;2022-08-24T15:39:37;5.03;;;2.30;;
17812;SDS011;9030;50.792;8.320;2022-08-24T15:42:06;7.18;;;3.50;;
17812;SDS011;9030;50.792;8.320;2022-08-24T15:44:37;10.98;;;4.07;;
17812;SDS011;9030;50.792;8.320;2022-08-24T15:47:11;5.90;;;3.20;;
17812;SDS011;9030;50.792;8.320;2022-08-24T15:49:44;5.28;;;3.25;;
17812;SDS011;9030;50.792;8.320;2022-08-24T15:55:14;3.17;;;2.15;;
17812;SDS011;9030;50.792;8.320;2022-08-24T15:57:55;7.07;;;2.65;;
17812;SDS011;9030;50.792;8.320;2022-08-24T16:00:34;9.90;;;3.30;;
17812;SDS011;9030;50.792;8.320;2022-08-24T16:03:19;7.65;;;3.25;;
17812;SDS011;9030;50.792;8.320;2022-08-24T16:05:49;8.30;;;3.03;;
17812;SDS011;9030;50.792;8.320;2022-08-24T16:08:18;6.30;;;2.83;;
17812;SDS011;9030;50.792;8.320;2022-08-24T16:10:46;6.72;;;2.88;;
17812;SDS011;9030;50.792;8.320;2022-08-24T16:13:25;8.20;;;3.28;;